createdAt,value
2022-09-29T00:00:33.511Z,14.55
2022-09-29T00:03:00.070Z,14.52
2022-09-29T00:05:26.686Z,14.53
2022-09-29T00:07:53.141Z,14.51
2022-09-29T00:10:19.933Z,14.49
2022-09-29T00:12:46.609Z,14.48
2022-09-29T00:15:13.817Z,14.44
2022-09-29T00:17:46.632Z,14.57
2022-09-29T00:20:24.493Z,14.51
2022-09-29T00:22:51.661Z,14.50
2022-09-29T00:25:18.890Z,14.50
2022-09-29T00:27:45.380Z,14.52
2022-09-29T00:30:12.333Z,14.52
2022-09-29T00:32:38.746Z,14.52
2022-09-29T00:35:07.043Z,14.55
2022-09-29T00:37:33.463Z,14.63
2022-09-29T00:40:00.354Z,14.58
2022-09-29T00:42:27.443Z,14.54
2022-09-29T00:45:04.128Z,14.58
2022-09-29T00:47:31.866Z,14.59
2022-09-29T00:50:02.210Z,14.52
2022-09-29T00:52:37.545Z,14.53
2022-09-29T00:55:04.014Z,14.72
2022-09-29T00:57:34.787Z,14.71
2022-09-29T01:00:10.948Z,14.57
2022-09-29T01:02:59.934Z,14.51
2022-09-29T01:05:29.519Z,14.63
2022-09-29T01:07:55.989Z,14.56
2022-09-29T01:10:23.354Z,14.58
2022-09-29T01:12:50.307Z,14.53
2022-09-29T01:15:17.831Z,14.56
2022-09-29T01:17:44.454Z,14.57
2022-09-29T01:20:13.289Z,14.67
2022-09-29T01:22:52.106Z,14.60
2022-09-29T01:25:31.345Z,14.66
2022-09-29T01:28:24.158Z,14.49
2022-09-29T01:31:02.603Z,14.41
2022-09-29T01:33:47.721Z,14.73
2022-09-29T01:36:28.437Z,14.48
2022-09-29T01:39:02.015Z,14.54
2022-09-29T01:41:33.367Z,14.50
2022-09-29T01:44:20.149Z,14.52
2022-09-29T01:47:05.254Z,14.56
2022-09-29T01:49:33.734Z,14.64
2022-09-29T01:52:03.106Z,14.69
2022-09-29T01:54:34.711Z,14.63
2022-09-29T01:57:06.570Z,14.78
2022-09-29T01:59:44.337Z,14.57
2022-09-29T02:02:14.262Z,14.43
2022-09-29T02:04:44.318Z,14.44
2022-09-29T02:07:14.365Z,14.33
2022-09-29T02:09:44.500Z,14.49
2022-09-29T02:12:13.621Z,14.44
2022-09-29T02:14:42.930Z,14.28
2022-09-29T02:17:19.486Z,14.05
2022-09-29T02:19:47.465Z,13.99
2022-09-29T02:22:14.573Z,14.08
2022-09-29T02:24:41.674Z,14.00
2022-09-29T02:27:08.434Z,13.91
2022-09-29T02:29:35.926Z,13.66
2022-09-29T02:32:03.064Z,13.65
2022-09-29T02:34:34.603Z,13.63
2022-09-29T02:37:15.258Z,13.42
2022-09-29T02:39:53.854Z,13.32
2022-09-29T02:42:32.645Z,13.20
2022-09-29T02:45:17.898Z,13.10
2022-09-29T02:47:53.233Z,13.24
2022-09-29T02:50:19.678Z,13.10
2022-09-29T02:52:48.891Z,13.32
2022-09-29T02:55:31.603Z,13.12
2022-09-29T02:58:20.514Z,13.10
2022-09-29T03:00:47.348Z,13.07
2022-09-29T03:03:13.975Z,12.91
2022-09-29T03:05:40.422Z,12.76
2022-09-29T03:08:06.859Z,12.74
2022-09-29T03:10:33.271Z,12.69
2022-09-29T03:12:59.801Z,12.71
2022-09-29T03:15:26.202Z,12.94
2022-09-29T03:17:54.966Z,12.57
2022-09-29T03:20:21.579Z,13.10
2022-09-29T03:22:48.085Z,12.80
2022-09-29T03:25:14.836Z,12.90
2022-09-29T03:27:41.839Z,12.84
2022-09-29T03:30:08.782Z,12.86
2022-09-29T03:32:35.217Z,12.94
2022-09-29T03:35:01.632Z,12.94
2022-09-29T03:37:28.141Z,12.84
2022-09-29T03:39:54.550Z,12.88
2022-09-29T03:42:24.136Z,12.74
2022-09-29T03:44:50.654Z,12.70
2022-09-29T03:47:17.149Z,12.77
2022-09-29T03:49:43.616Z,12.66
2022-09-29T03:52:10.056Z,12.59
2022-09-29T03:54:36.520Z,12.59
2022-09-29T03:57:03.038Z,12.63
2022-09-29T03:59:29.434Z,12.51
2022-09-29T04:01:56.383Z,12.51
2022-09-29T04:04:22.866Z,12.55
2022-09-29T04:06:49.265Z,12.56
2022-09-29T04:09:15.780Z,12.48
2022-09-29T04:11:42.417Z,12.41
2022-09-29T04:14:08.835Z,12.34
2022-09-29T04:16:35.319Z,12.36
2022-09-29T04:19:01.817Z,12.44
2022-09-29T04:21:28.287Z,12.21
2022-09-29T04:23:54.699Z,12.23
2022-09-29T04:26:21.194Z,12.24
2022-09-29T04:28:47.936Z,12.03
2022-09-29T04:31:14.741Z,12.10
2022-09-29T04:33:41.558Z,12.05
2022-09-29T04:36:08.322Z,12.16
2022-09-29T04:38:35.281Z,12.21
2022-09-29T04:41:01.860Z,12.68
2022-09-29T04:43:28.663Z,12.28
2022-09-29T04:46:01.425Z,12.38
2022-09-29T04:48:27.874Z,11.95
2022-09-29T04:50:55.010Z,11.96
2022-09-29T04:53:21.466Z,11.97
2022-09-29T04:55:47.961Z,11.95
2022-09-29T04:58:15.423Z,11.88
2022-09-29T05:00:41.922Z,11.91
2022-09-29T05:03:08.351Z,11.76
2022-09-29T05:05:34.755Z,11.65
2022-09-29T05:08:04.131Z,11.68
2022-09-29T05:10:30.923Z,11.67
2022-09-29T05:12:57.381Z,11.39
2022-09-29T05:15:26.083Z,11.61
2022-09-29T05:17:52.947Z,11.67
2022-09-29T05:20:19.581Z,11.46
2022-09-29T05:22:46.017Z,11.40
2022-09-29T05:25:12.521Z,11.30
2022-09-29T05:27:38.944Z,11.28
2022-09-29T05:30:05.733Z,11.38
2022-09-29T05:32:32.176Z,11.35
2022-09-29T05:34:59.540Z,11.76
2022-09-29T05:37:25.949Z,11.89
2022-09-29T05:39:52.462Z,11.91
2022-09-29T05:42:19.370Z,11.96
2022-09-29T05:44:45.813Z,11.61
2022-09-29T05:47:12.254Z,11.55
2022-09-29T05:49:39.150Z,11.63
2022-09-29T05:52:05.557Z,11.58
2022-09-29T05:54:32.104Z,11.41
2022-09-29T05:56:58.559Z,11.49
2022-09-29T05:59:24.984Z,11.42
2022-09-29T06:01:51.494Z,11.56
2022-09-29T06:04:17.981Z,11.42
2022-09-29T06:06:44.524Z,11.42
2022-09-29T06:09:11.192Z,11.44
2022-09-29T06:11:37.670Z,11.59
2022-09-29T06:14:04.159Z,11.46
2022-09-29T06:16:31.939Z,11.41
2022-09-29T06:18:59.011Z,11.23
2022-09-29T06:21:26.735Z,11.37
2022-09-29T06:23:56.846Z,11.42
2022-09-29T06:26:24.688Z,11.48
2022-09-29T06:28:52.061Z,11.21
2022-09-29T06:31:19.704Z,11.15
2022-09-29T06:33:46.646Z,11.14
2022-09-29T06:36:39.447Z,11.22
2022-09-29T06:39:06.796Z,11.34
2022-09-29T06:41:34.268Z,11.16
2022-09-29T06:44:01.047Z,11.26
2022-09-29T06:46:27.566Z,11.18
2022-09-29T06:48:54.600Z,11.30
2022-09-29T06:51:22.681Z,11.22
2022-09-29T06:53:50.167Z,11.31
2022-09-29T06:56:17.251Z,11.18
2022-09-29T06:58:44.842Z,11.30
2022-09-29T07:01:12.694Z,11.19
2022-09-29T07:03:39.220Z,11.24
2022-09-29T07:06:19.380Z,11.35
2022-09-29T07:08:46.546Z,11.28
2022-09-29T07:11:13.057Z,11.30
2022-09-29T07:13:39.492Z,11.50
2022-09-29T07:16:07.033Z,11.34
2022-09-29T07:18:40.288Z,11.35
2022-09-29T07:21:07.838Z,11.78
2022-09-29T07:23:34.318Z,11.27
2022-09-29T07:26:00.899Z,11.44
2022-09-29T07:28:27.750Z,11.48
2022-09-29T07:31:11.713Z,11.54
2022-09-29T07:33:41.204Z,11.73
2022-09-29T07:36:08.063Z,11.96
2022-09-29T07:38:34.703Z,11.64
2022-09-29T07:41:02.515Z,11.54
2022-09-29T07:43:29.955Z,11.65
2022-09-29T07:45:56.527Z,11.68
2022-09-29T07:48:23.002Z,11.78
2022-09-29T07:50:49.459Z,11.77
2022-09-29T07:53:15.915Z,11.45
2022-09-29T07:55:42.359Z,11.61
2022-09-29T07:58:08.839Z,11.37
2022-09-29T08:00:35.309Z,11.34
2022-09-29T08:03:02.441Z,11.71
2022-09-29T08:05:30.073Z,11.53
2022-09-29T08:07:57.979Z,11.26
2022-09-29T08:10:24.741Z,11.52
2022-09-29T08:12:51.150Z,11.35
2022-09-29T08:15:17.618Z,11.40
2022-09-29T08:17:44.114Z,11.41
2022-09-29T08:20:10.545Z,11.42
2022-09-29T08:22:36.975Z,11.48
2022-09-29T08:25:03.542Z,11.83
2022-09-29T08:27:30.046Z,11.62
2022-09-29T08:29:58.548Z,11.55
2022-09-29T08:32:25.204Z,11.84
2022-09-29T08:34:51.722Z,11.75
2022-09-29T08:37:18.168Z,11.86
2022-09-29T08:39:44.608Z,11.68
2022-09-29T08:42:17.145Z,11.68
2022-09-29T08:45:11.402Z,11.79
2022-09-29T08:47:47.806Z,11.93
2022-09-29T08:50:20.635Z,11.91
2022-09-29T08:52:52.774Z,11.88
2022-09-29T08:55:21.986Z,12.04
2022-09-29T08:57:53.707Z,11.91
2022-09-29T09:00:20.813Z,11.81
2022-09-29T09:03:05.878Z,11.74
2022-09-29T09:05:40.240Z,11.88
2022-09-29T09:08:18.848Z,11.78
2022-09-29T09:10:47.405Z,11.79
2022-09-29T09:13:16.917Z,11.60
2022-09-29T09:16:02.198Z,11.61
2022-09-29T09:18:34.185Z,11.45
2022-09-29T09:21:03.681Z,11.26
2022-09-29T09:23:46.762Z,11.33
2022-09-29T09:26:13.782Z,11.38
2022-09-29T09:28:43.229Z,11.75
2022-09-29T09:31:16.335Z,11.55
2022-09-29T09:34:01.435Z,11.49
2022-09-29T09:37:06.563Z,11.84
2022-09-29T09:39:40.191Z,11.68
2022-09-29T09:42:11.368Z,11.89
2022-09-29T09:44:43.747Z,11.67
2022-09-29T09:47:10.147Z,11.62
2022-09-29T09:49:39.449Z,11.57
2022-09-29T09:52:18.199Z,11.43
2022-09-29T09:54:46.330Z,11.45
2022-09-29T09:57:28.193Z,11.56
2022-09-29T10:00:13.500Z,11.44
2022-09-29T10:03:01.818Z,11.77
2022-09-29T10:05:42.520Z,11.69
2022-09-29T10:08:27.678Z,11.67
2022-09-29T10:10:58.711Z,11.63
2022-09-29T10:13:27.041Z,11.75
2022-09-29T10:15:56.408Z,11.59
2022-09-29T10:18:22.791Z,11.73
2022-09-29T10:20:49.225Z,11.77
2022-09-29T10:23:35.088Z,11.63
2022-09-29T10:26:25.821Z,11.62
2022-09-29T10:29:00.672Z,11.79
2022-09-29T10:31:29.008Z,11.74
2022-09-29T10:34:04.610Z,11.70
2022-09-29T10:36:32.582Z,11.60
2022-09-29T10:39:00.918Z,11.51
2022-09-29T10:41:30.955Z,11.79
2022-09-29T10:44:14.314Z,11.59
2022-09-29T10:46:54.794Z,11.46
2022-09-29T10:49:22.351Z,11.49
2022-09-29T10:52:20.951Z,11.47
2022-09-29T10:55:00.762Z,11.59
2022-09-29T10:57:28.703Z,11.73
2022-09-29T10:59:57.243Z,11.57
2022-09-29T11:02:27.812Z,11.72
2022-09-29T11:04:56.333Z,11.82
2022-09-29T11:07:22.866Z,11.43
2022-09-29T11:09:50.847Z,11.52
2022-09-29T11:12:26.154Z,11.90
2022-09-29T11:14:52.866Z,11.93
2022-09-29T11:17:22.765Z,11.93
2022-09-29T11:19:50.173Z,11.86
2022-09-29T11:22:24.922Z,11.77
2022-09-29T11:25:10.234Z,11.84
2022-09-29T11:27:53.639Z,12.11
2022-09-29T11:30:38.295Z,12.35
2022-09-29T11:33:11.029Z,12.39
2022-09-29T11:35:38.851Z,12.50
2022-09-29T11:38:06.012Z,12.70
2022-09-29T11:40:48.962Z,12.32
2022-09-29T11:43:34.307Z,11.90
2022-09-29T11:46:11.324Z,11.68
2022-09-29T11:48:56.580Z,11.66
2022-09-29T11:51:30.481Z,11.73
2022-09-29T11:54:23.530Z,11.80
2022-09-29T11:56:55.406Z,12.04
2022-09-29T11:59:41.953Z,12.27
2022-09-29T12:02:19.237Z,12.72
2022-09-29T12:05:06.058Z,12.66
2022-09-29T12:07:45.217Z,12.43
2022-09-29T12:10:26.112Z,12.57
2022-09-29T12:13:02.114Z,12.45
2022-09-29T12:15:33.411Z,12.38
2022-09-29T12:18:08.004Z,12.40
2022-09-29T12:20:36.502Z,12.58
2022-09-29T12:23:05.727Z,12.56
2022-09-29T12:25:35.051Z,12.44
2022-09-29T12:28:22.159Z,12.65
2022-09-29T12:30:52.978Z,12.85
2022-09-29T12:33:25.858Z,12.90
2022-09-29T12:36:27.866Z,12.65
2022-09-29T12:38:56.771Z,12.48
2022-09-29T12:41:26.918Z,12.48
2022-09-29T12:44:12.383Z,12.61
2022-09-29T12:46:43.157Z,12.49
2022-09-29T12:49:22.053Z,12.50
2022-09-29T12:51:49.623Z,12.53
2022-09-29T12:54:26.291Z,12.38
2022-09-29T12:56:58.595Z,12.48
2022-09-29T12:59:40.462Z,12.56
2022-09-29T13:02:16.210Z,12.42
2022-09-29T13:04:42.703Z,12.48
2022-09-29T13:07:21.165Z,12.52
2022-09-29T13:10:06.153Z,12.49
2022-09-29T13:12:52.786Z,12.55
2022-09-29T13:15:19.227Z,12.45
2022-09-29T13:18:04.806Z,12.51
2022-09-29T13:20:42.739Z,12.50
2022-09-29T13:23:18.454Z,12.53
2022-09-29T13:26:07.042Z,12.52
2022-09-29T13:28:36.411Z,12.53
2022-09-29T13:31:05.427Z,12.54
2022-09-29T13:33:32.853Z,12.51
2022-09-29T13:35:59.488Z,12.40
2022-09-29T13:38:28.963Z,12.33
2022-09-29T13:41:13.089Z,12.34
2022-09-29T13:43:51.460Z,12.37
2022-09-29T13:46:36.361Z,12.10
2022-09-29T13:49:12.098Z,12.34
2022-09-29T13:51:43.689Z,12.48
2022-09-29T13:54:29.704Z,12.47
2022-09-29T13:57:05.294Z,12.68
2022-09-29T13:59:32.234Z,12.97
2022-09-29T14:01:59.054Z,12.91
2022-09-29T14:04:46.199Z,12.78
2022-09-29T14:07:14.054Z,12.39
2022-09-29T14:09:43.719Z,12.23
2022-09-29T14:12:19.254Z,12.35
2022-09-29T14:14:51.041Z,12.51
2022-09-29T14:17:21.380Z,12.67
2022-09-29T14:19:53.418Z,12.68
2022-09-29T14:22:38.390Z,12.53
2022-09-29T14:25:07.573Z,12.68
2022-09-29T14:27:37.097Z,12.64
2022-09-29T14:30:09.634Z,12.59
2022-09-29T14:32:41.926Z,12.49
2022-09-29T14:35:19.770Z,12.61
2022-09-29T14:37:48.414Z,12.66
2022-09-29T14:40:29.208Z,12.48
2022-09-29T14:43:02.648Z,12.67
2022-09-29T14:45:48.982Z,12.70
2022-09-29T14:48:45.417Z,12.69
2022-09-29T14:51:35.576Z,12.80
2022-09-29T14:54:10.865Z,12.89
2022-09-29T14:56:55.216Z,12.82
2022-09-29T14:59:31.475Z,12.88
2022-09-29T15:02:11.959Z,12.82
2022-09-29T15:04:42.098Z,12.75
2022-09-29T15:07:13.196Z,12.80
2022-09-29T15:09:39.889Z,12.79
2022-09-29T15:12:15.039Z,12.78
2022-09-29T15:14:42.194Z,12.74
2022-09-29T15:17:08.931Z,12.72
2022-09-29T15:19:41.469Z,12.74
2022-09-29T15:22:26.710Z,13.18
2022-09-29T15:24:53.105Z,13.09
2022-09-29T15:27:20.597Z,13.14
2022-09-29T15:29:53.994Z,13.07
2022-09-29T15:32:28.530Z,13.24
2022-09-29T15:35:01.282Z,13.42
2022-09-29T15:37:37.288Z,13.28
2022-09-29T15:40:03.935Z,13.06
2022-09-29T15:42:30.406Z,13.13
2022-09-29T15:45:00.959Z,12.95
2022-09-29T15:47:29.443Z,12.83
2022-09-29T15:49:55.954Z,12.85
2022-09-29T15:52:23.588Z,12.72
2022-09-29T15:54:55.217Z,12.65
2022-09-29T15:57:43.082Z,12.59
2022-09-29T16:00:21.810Z,12.79
2022-09-29T16:03:02.231Z,12.79
2022-09-29T16:05:31.720Z,12.80
2022-09-29T16:08:14.303Z,12.82
2022-09-29T16:10:42.387Z,12.81
2022-09-29T16:13:16.705Z,12.61
2022-09-29T16:15:45.014Z,12.49
2022-09-29T16:18:22.037Z,12.55
2022-09-29T16:20:49.367Z,12.65
2022-09-29T16:23:15.779Z,12.64
2022-09-29T16:25:42.293Z,12.71
2022-09-29T16:28:23.853Z,12.54
2022-09-29T16:31:04.132Z,12.46
2022-09-29T16:33:33.044Z,12.55
2022-09-29T16:35:59.451Z,12.57
2022-09-29T16:38:36.597Z,12.69
2022-09-29T16:41:21.711Z,12.70
2022-09-29T16:43:49.974Z,12.57
2022-09-29T16:46:18.526Z,12.51
2022-09-29T16:48:46.086Z,12.60
2022-09-29T16:51:39.242Z,12.64
2022-09-29T16:54:06.450Z,12.49
2022-09-29T16:56:35.434Z,12.55
2022-09-29T16:59:12.973Z,12.43
2022-09-29T17:01:41.223Z,12.69
2022-09-29T17:04:08.147Z,12.42
2022-09-29T17:06:34.697Z,12.28
2022-09-29T17:09:01.243Z,12.29
2022-09-29T17:11:28.747Z,12.26
2022-09-29T17:13:58.142Z,12.40
2022-09-29T17:16:25.260Z,12.47
2022-09-29T17:18:52.662Z,12.42
2022-09-29T17:21:19.920Z,12.54
2022-09-29T17:23:46.441Z,12.44
2022-09-29T17:26:50.329Z,12.44
2022-09-29T17:29:16.785Z,12.49
2022-09-29T17:31:43.222Z,12.48
2022-09-29T17:34:09.682Z,12.51
2022-09-29T17:36:36.920Z,12.63
2022-09-29T17:39:03.423Z,12.49
2022-09-29T17:41:29.894Z,12.43
2022-09-29T17:43:56.319Z,12.45
2022-09-29T17:46:22.804Z,12.53
2022-09-29T17:48:49.228Z,12.54
2022-09-29T17:51:18.208Z,12.49
2022-09-29T17:53:44.749Z,12.45
2022-09-29T17:56:18.145Z,12.43
2022-09-29T17:58:44.591Z,12.38
2022-09-29T18:01:11.084Z,12.41
2022-09-29T18:03:40.171Z,12.44
2022-09-29T18:06:06.863Z,12.35
2022-09-29T18:08:33.330Z,12.43
2022-09-29T18:11:00.852Z,12.28
2022-09-29T18:13:28.369Z,12.31
2022-09-29T18:15:55.205Z,12.44
2022-09-29T18:18:22.420Z,12.49
2022-09-29T18:20:50.082Z,12.17
2022-09-29T18:23:17.118Z,12.13
2022-09-29T18:25:47.682Z,12.00
2022-09-29T18:28:15.416Z,12.09
2022-09-29T18:30:42.826Z,12.07
2022-09-29T18:33:14.384Z,11.99
2022-09-29T18:35:41.805Z,12.08
2022-09-29T18:38:08.279Z,12.15
2022-09-29T18:40:35.033Z,12.29
2022-09-29T18:43:01.973Z,12.40
2022-09-29T18:45:29.764Z,12.47
2022-09-29T18:48:03.395Z,12.23
2022-09-29T18:50:31.193Z,12.16
2022-09-29T18:52:59.254Z,12.27
2022-09-29T18:55:26.478Z,12.37
2022-09-29T18:57:53.501Z,12.43
2022-09-29T19:00:21.870Z,12.30
2022-09-29T19:02:48.805Z,12.27
2022-09-29T19:05:18.585Z,12.33
2022-09-29T19:07:45.701Z,12.32
2022-09-29T19:10:14.250Z,12.28
2022-09-29T19:12:45.125Z,12.20
2022-09-29T19:15:12.194Z,12.25
2022-09-29T19:17:38.667Z,12.24
2022-09-29T19:20:05.367Z,12.36
2022-09-29T19:22:38.303Z,12.41
2022-09-29T19:25:06.494Z,12.37
2022-09-29T19:27:33.009Z,12.51
2022-09-29T19:30:03.207Z,12.63
2022-09-29T19:32:30.178Z,12.59
2022-09-29T19:34:56.755Z,12.53
2022-09-29T19:37:24.112Z,12.57
2022-09-29T19:39:50.861Z,12.47
2022-09-29T19:42:17.378Z,12.45
2022-09-29T19:44:43.895Z,12.61
2022-09-29T19:47:11.020Z,12.52
2022-09-29T19:49:37.483Z,12.56
2022-09-29T19:52:04.534Z,12.53
2022-09-29T19:54:33.316Z,12.45
2022-09-29T19:57:01.596Z,12.37
2022-09-29T19:59:32.907Z,12.24
2022-09-29T20:01:59.924Z,12.25
2022-09-29T20:04:30.469Z,12.26
2022-09-29T20:06:57.898Z,12.26
2022-09-29T20:09:25.135Z,12.28
2022-09-29T20:12:19.586Z,12.33
2022-09-29T20:14:46.169Z,12.33
2022-09-29T20:17:14.401Z,12.45
2022-09-29T20:19:41.298Z,12.33
2022-09-29T20:22:09.362Z,12.34
2022-09-29T20:24:35.910Z,12.33
2022-09-29T20:27:02.356Z,12.27
2022-09-29T20:29:29.742Z,12.27
2022-09-29T20:31:56.555Z,12.31
2022-09-29T20:34:23.463Z,12.31
2022-09-29T20:36:54.462Z,12.25
2022-09-29T20:39:21.718Z,12.39
2022-09-29T20:41:49.989Z,12.45
2022-09-29T20:44:19.935Z,12.29
2022-09-29T20:46:46.625Z,12.19
2022-09-29T20:49:13.154Z,12.17
2022-09-29T20:51:39.602Z,12.26
2022-09-29T20:54:06.004Z,12.14
2022-09-29T20:56:40.065Z,12.07
2022-09-29T20:59:06.525Z,12.09
2022-09-29T21:01:33.011Z,12.15
2022-09-29T21:04:00.572Z,12.22
2022-09-29T21:06:28.091Z,12.25
2022-09-29T21:08:54.730Z,12.05
2022-09-29T21:11:22.574Z,12.17
2022-09-29T21:13:50.842Z,12.05
2022-09-29T21:16:18.140Z,12.12
2022-09-29T21:18:45.038Z,12.15
2022-09-29T21:21:11.961Z,12.05
2022-09-29T21:23:39.796Z,12.16
2022-09-29T21:26:08.649Z,12.28
2022-09-29T21:28:39.083Z,12.25
2022-09-29T21:31:06.975Z,12.24
2022-09-29T21:33:34.425Z,11.97
2022-09-29T21:36:02.095Z,12.17
2022-09-29T21:38:32.037Z,12.21
2022-09-29T21:41:04.575Z,12.26
2022-09-29T21:43:32.785Z,12.23
2022-09-29T21:46:00.174Z,12.18
2022-09-29T21:48:27.086Z,12.18
2022-09-29T21:51:00.482Z,12.23
2022-09-29T21:53:26.925Z,12.20
2022-09-29T21:55:53.350Z,12.24
2022-09-29T21:58:19.830Z,12.15
2022-09-29T22:00:47.511Z,12.22
2022-09-29T22:03:15.836Z,12.23
2022-09-29T22:05:42.582Z,12.30
2022-09-29T22:08:12.227Z,12.23
2022-09-29T22:10:38.944Z,12.38
2022-09-29T22:13:05.360Z,12.36
2022-09-29T22:15:34.847Z,12.32
2022-09-29T22:18:01.315Z,12.10
2022-09-29T22:20:27.732Z,12.15
2022-09-29T22:22:54.179Z,12.16
2022-09-29T22:25:20.603Z,12.26
2022-09-29T22:27:47.090Z,12.25
2022-09-29T22:30:13.518Z,11.94
2022-09-29T22:32:40.016Z,12.14
2022-09-29T22:35:06.615Z,12.32
2022-09-29T22:37:33.048Z,12.31
2022-09-29T22:39:59.619Z,12.34
2022-09-29T22:42:26.017Z,12.35
2022-09-29T22:44:52.445Z,12.26
2022-09-29T22:47:18.877Z,12.10
2022-09-29T22:49:45.505Z,11.90
2022-09-29T22:52:11.945Z,12.00
2022-09-29T22:54:38.357Z,12.20
2022-09-29T22:57:06.085Z,12.15
2022-09-29T22:59:32.566Z,12.30
2022-09-29T23:01:59.097Z,12.27
2022-09-29T23:04:25.579Z,12.29
2022-09-29T23:06:52.601Z,12.30
2022-09-29T23:09:19.367Z,12.29
2022-09-29T23:11:46.071Z,12.33
2022-09-29T23:14:12.702Z,12.36
2022-09-29T23:16:39.181Z,12.30
2022-09-29T23:19:05.642Z,12.38
2022-09-29T23:21:33.476Z,12.39
2022-09-29T23:24:01.496Z,12.41
2022-09-29T23:26:29.332Z,12.35
2022-09-29T23:28:55.814Z,12.40
2022-09-29T23:31:22.397Z,12.37
2022-09-29T23:33:55.999Z,12.34
2022-09-29T23:36:22.973Z,12.35
2022-09-29T23:39:08.157Z,12.26
2022-09-29T23:41:34.617Z,12.31
2022-09-29T23:44:05.345Z,12.35
2022-09-29T23:46:33.801Z,12.17
2022-09-29T23:49:01.217Z,12.21
2022-09-29T23:51:28.767Z,12.19
2022-09-29T23:53:55.213Z,12.24
2022-09-29T23:56:21.710Z,12.22
2022-09-29T23:58:48.150Z,12.30
